Time;durP1;ratioP1;P1;durP2;ratioP2;P2;SDS_P1;SDS_P2;PMS_P1;PMS_P2;Temp;Humidity;BMP_temperature;BMP_pressure;BME280_temperature;BME280_humidity;BME280_pressure;Samples;Min_cycle;Max_cycle;Signal;HPM_P1;HPM_P2
2022/09/04 00:00:12;;;;;;;2.10;2.00;;;24.40;39.10;;;;;;6163205;23;20749;-66
2022/09/04 00:02:41;;;;;;;2.37;2.27;;;24.40;39.10;;;;;;6200384;23;20886;-66
2022/09/04 00:05:27;;;;;;;2.70;2.60;;;24.40;39.10;;;;;;6205793;23;20450;-67
2022/09/04 00:08:10;;;;;;;2.53;2.43;;;24.40;39.10;;;;;;6205597;23;20414;-66
2022/09/04 00:10:44;;;;;;;2.13;2.03;;;24.40;39.20;;;;;;6166086;23;20491;-67
2022/09/04 00:13:37;;;;;;;2.33;2.23;;;24.40;39.20;;;;;;6174523;23;20756;-67
2022/09/04 00:16:08;;;;;;;2.50;2.40;;;24.40;39.20;;;;;;6176890;23;21338;-67
2022/09/04 00:18:45;;;;;;;2.30;2.20;;;24.40;39.20;;;;;;6173292;23;20415;-67
2022/09/04 00:21:24;;;;;;;2.47;2.37;;;24.40;39.20;;;;;;6198629;23;20422;-67
2022/09/04 00:23:56;;;;;;;2.23;2.13;;;24.40;39.20;;;;;;6190539;23;20420;-66
2022/09/04 00:26:58;;;;;;;2.10;2.00;;;24.40;39.20;;;;;;6173315;23;20439;-67
2022/09/04 00:30:01;;;;;;;2.40;2.30;;;24.40;39.20;;;;;;6170988;23;20466;-66
2022/09/04 00:32:40;;;;;;;2.50;2.40;;;24.40;39.20;;;;;;6198069;23;20429;-67
2022/09/04 00:35:20;;;;;;;2.40;2.30;;;24.40;39.20;;;;;;6174852;23;20892;-66
2022/09/04 00:38:10;;;;;;;2.10;2.00;;;24.40;39.20;;;;;;6171619;23;20499;-67
2022/09/04 00:40:57;;;;;;;2.30;2.20;;;24.40;39.20;;;;;;6189162;23;20486;-67
2022/09/04 00:43:25;;;;;;;3.30;2.00;;;24.40;39.30;;;;;;6205945;23;20566;-66
2022/09/04 00:46:22;;;;;;;2.60;2.50;;;24.40;39.30;;;;;;6171898;22;20407;-66
2022/09/04 00:49:02;;;;;;;2.43;2.33;;;24.40;39.30;;;;;;6195499;23;20415;-66
2022/09/04 00:52:12;;;;;;;2.10;2.00;;;24.40;39.30;;;;;;6170465;22;20400;-67
2022/09/04 00:54:55;;;;;;;2.23;2.13;;;24.40;40.10;;;;;;6109441;23;20395;-67
2022/09/04 00:57:49;;;;;;;2.30;2.20;;;24.40;39.40;;;;;;6201036;23;20494;-67
2022/09/04 01:00:19;;;;;;;2.20;2.10;;;24.40;39.40;;;;;;6195382;23;20499;-66
2022/09/04 01:03:16;;;;;;;3.20;3.00;;;24.40;39.30;;;;;;6204976;23;20412;-66
2022/09/04 01:06:03;;;;;;;2.77;2.67;;;24.40;39.30;;;;;;6200712;23;20408;-66
2022/09/04 01:08:46;;;;;;;2.20;2.10;;;24.40;39.40;;;;;;6173739;23;20798;-66
2022/09/04 01:11:42;;;;;;;2.40;2.30;;;24.30;39.30;;;;;;6201598;23;20870;-66
2022/09/04 01:14:32;;;;;;;2.77;2.67;;;24.40;39.40;;;;;;6172142;23;21017;-67
2022/09/04 01:17:14;;;;;;;3.07;2.87;;;24.40;39.40;;;;;;6180851;22;20491;-66
2022/09/04 01:19:54;;;;;;;2.33;2.23;;;24.30;39.40;;;;;;6171704;23;20439;-66
2022/09/04 01:22:44;;;;;;;2.93;2.73;;;24.30;39.50;;;;;;6170889;23;20420;-66
2022/09/04 01:25:31;;;;;;;2.60;2.50;;;24.30;39.40;;;;;;6170744;23;20405;-66
2022/09/04 01:28:18;;;;;;;2.10;2.00;;;24.40;39.50;;;;;;6169596;23;20500;-66
2022/09/04 01:30:56;;;;;;;2.63;2.53;;;24.30;39.40;;;;;;6174786;23;20991;-66
2022/09/04 01:33:44;;;;;;;2.50;2.40;;;24.30;39.50;;;;;;6203159;23;20411;-67
2022/09/04 01:36:35;;;;;;;2.60;2.50;;;24.30;39.50;;;;;;6164153;23;20464;-66
2022/09/04 01:39:02;;;;;;;2.60;2.50;;;24.30;39.50;;;;;;6172557;23;20407;-66
2022/09/04 01:41:49;;;;;;;2.67;2.57;;;24.30;39.50;;;;;;6174992;22;20463;-66
2022/09/04 01:44:14;;;;;;;2.30;2.20;;;24.30;39.50;;;;;;6173529;23;20416;-67
2022/09/04 01:47:18;;;;;;;2.83;2.73;;;24.30;39.50;;;;;;6172138;23;20427;-66
2022/09/04 01:49:57;;;;;;;2.50;2.40;;;24.30;39.50;;;;;;6204058;23;20228;-65
2022/09/04 01:52:51;;;;;;;2.63;2.53;;;24.30;39.50;;;;;;6203416;23;20415;-66
2022/09/04 01:55:35;;;;;;;2.97;2.77;;;24.30;39.50;;;;;;6200719;23;20463;-66
2022/09/04 01:58:15;;;;;;;2.40;2.30;;;24.30;39.60;;;;;;6202627;23;20412;-66
2022/09/04 02:01:07;;;;;;;2.73;2.53;;;24.30;39.60;;;;;;6201611;23;20510;-66
2022/09/04 02:03:46;;;;;;;2.40;2.30;;;24.30;39.60;;;;;;6155565;23;20411;-66
2022/09/04 02:06:47;;;;;;;2.53;2.43;;;24.30;39.70;;;;;;6196451;23;20979;-66
2022/09/04 02:09:31;;;;;;;2.57;2.47;;;24.30;39.60;;;;;;6174677;23;20432;-66
2022/09/04 02:12:26;;;;;;;2.67;2.47;;;24.30;39.60;;;;;;6178414;23;20935;-66
2022/09/04 02:15:15;;;;;;;2.23;2.13;;;24.30;39.60;;;;;;6173236;23;20784;-66
2022/09/04 02:18:31;;;;;;;2.90;2.80;;;24.30;39.60;;;;;;6174242;23;20420;-66
2022/09/04 02:21:20;;;;;;;2.00;1.90;;;24.30;39.70;;;;;;6198032;23;20502;-66
2022/09/04 02:23:52;;;;;;;2.67;2.57;;;24.30;39.70;;;;;;6203129;23;20410;-66
2022/09/04 02:26:38;;;;;;;2.90;2.70;;;24.30;39.70;;;;;;6177315;23;20722;-66
2022/09/04 02:29:35;;;;;;;2.80;2.70;;;24.30;39.70;;;;;;6179051;23;20463;-67
2022/09/04 02:32:17;;;;;;;2.27;2.17;;;24.30;39.70;;;;;;6174959;23;20400;-67
2022/09/04 02:35:05;;;;;;;2.77;2.57;;;24.30;39.70;;;;;;6191511;23;20741;-67
2022/09/04 02:37:49;;;;;;;2.67;2.47;;;24.30;39.80;;;;;;6175013;23;20490;-66
2022/09/04 02:40:34;;;;;;;2.43;2.33;;;24.30;39.70;;;;;;6192505;23;20420;-66
2022/09/04 02:43:34;;;;;;;2.70;2.60;;;24.30;39.80;;;;;;6177305;23;20412;-66
2022/09/04 02:46:07;;;;;;;2.47;2.37;;;24.30;39.70;;;;;;6160556;22;20440;-66
2022/09/04 02:49:16;;;;;;;2.33;2.23;;;24.30;39.80;;;;;;6196389;23;20417;-66
2022/09/04 02:52:00;;;;;;;3.40;3.20;;;24.30;39.90;;;;;;6206418;23;20841;-66
2022/09/04 02:54:51;;;;;;;2.83;2.50;;;24.30;39.90;;;;;;6208116;23;22977;-67
2022/09/04 02:57:28;;;;;;;2.53;2.43;;;24.30;39.80;;;;;;6205076;23;20412;-66
2022/09/04 03:00:16;;;;;;;2.77;2.67;;;24.30;39.80;;;;;;6206532;23;20878;-67
2022/09/04 03:03:04;;;;;;;2.77;2.63;;;24.30;39.90;;;;;;6173689;23;20904;-67
2022/09/04 03:05:41;;;;;;;2.60;2.50;;;24.30;39.80;;;;;;6175539;23;20413;-67
2022/09/04 03:08:22;;;;;;;2.73;2.63;;;24.30;39.90;;;;;;6193604;23;20486;-67
2022/09/04 03:11:01;;;;;;;2.67;2.57;;;24.30;39.90;;;;;;6204700;23;20518;-67
2022/09/04 03:13:46;;;;;;;4.90;3.17;;;24.30;39.90;;;;;;6190834;23;20419;-66
2022/09/04 03:16:17;;;;;;;3.10;3.00;;;24.30;39.90;;;;;;6173240;23;20424;-67
2022/09/04 03:19:24;;;;;;;2.87;2.63;;;24.30;40.00;;;;;;6149123;23;20448;-67
2022/09/04 03:21:59;;;;;;;2.93;2.83;;;24.30;39.90;;;;;;6189635;23;20871;-66
2022/09/04 03:24:43;;;;;;;3.23;3.03;;;24.30;40.00;;;;;;6200742;23;20415;-67
2022/09/04 03:27:13;;;;;;;3.27;3.07;;;24.30;39.90;;;;;;6176930;22;20453;-67
2022/09/04 03:30:00;;;;;;;3.00;2.80;;;24.30;40.00;;;;;;6175578;23;20412;-67
2022/09/04 03:32:34;;;;;;;3.00;2.90;;;24.30;40.00;;;;;;6175365;23;20417;-66
2022/09/04 03:35:15;;;;;;;3.07;2.87;;;24.30;40.10;;;;;;6175620;23;20423;-66
2022/09/04 03:38:06;;;;;;;2.90;2.80;;;24.30;40.00;;;;;;6174915;23;20413;-66
2022/09/04 03:40:44;;;;;;;3.33;3.13;;;24.30;40.00;;;;;;6178988;23;20412;-66
2022/09/04 03:43:54;;;;;;;3.37;3.17;;;24.30;40.10;;;;;;6205822;23;20415;-67
2022/09/04 03:46:47;;;;;;;3.27;3.07;;;24.30;40.00;;;;;;6103569;23;20422;-65
2022/09/04 03:49:30;;;;;;;3.23;3.03;;;24.30;40.80;;;;;;6147378;23;20416;-66
2022/09/04 03:52:20;;;;;;;3.47;3.27;;;24.30;40.00;;;;;;6205349;23;20412;-66
2022/09/04 03:55:19;;;;;;;3.40;3.10;;;24.30;40.10;;;;;;6201397;23;20411;-66
2022/09/04 03:57:51;;;;;;;3.23;3.03;;;24.30;40.00;;;;;;6177138;23;20880;-65
2022/09/04 04:00:19;;;;;;;2.90;2.80;;;24.30;40.10;;;;;;6171628;23;20413;-66
2022/09/04 04:02:50;;;;;;;3.20;3.10;;;24.30;40.10;;;;;;6175662;23;20409;-67
2022/09/04 04:05:35;;;;;;;3.33;3.23;;;24.30;40.20;;;;;;6174629;22;20897;-66
2022/09/04 04:08:29;;;;;;;2.53;2.43;;;24.30;40.10;;;;;;6204835;22;20402;-66
2022/09/04 04:11:25;;;;;;;3.50;3.30;;;24.30;40.10;;;;;;6204859;23;20515;-65
2022/09/04 04:13:51;;;;;;;3.63;3.43;;;24.30;40.10;;;;;;6203417;23;20411;-66
2022/09/04 04:16:39;;;;;;;3.20;3.00;;;24.30;40.20;;;;;;6203115;23;20459;-66
2022/09/04 04:19:33;;;;;;;3.03;2.93;;;24.30;40.10;;;;;;6181842;23;20648;-67
2022/09/04 04:22:29;;;;;;;3.63;3.43;;;24.30;40.20;;;;;;6165288;22;20401;-66
2022/09/04 04:25:24;;;;;;;2.73;2.60;;;24.30;40.10;;;;;;6170444;23;20420;-66
2022/09/04 04:28:08;;;;;;;3.07;2.87;;;24.30;40.20;;;;;;6201108;23;20929;-66
2022/09/04 04:30:48;;;;;;;2.90;2.70;;;24.30;40.20;;;;;;6172996;23;20419;-66
2022/09/04 04:33:27;;;;;;;3.13;2.93;;;24.30;40.20;;;;;;6146742;23;20717;-66
2022/09/04 04:36:18;;;;;;;3.23;3.10;;;24.30;40.20;;;;;;6173820;23;20428;-65
2022/09/04 04:38:55;;;;;;;3.03;2.90;;;24.30;40.20;;;;;;6205983;23;20420;-66
2022/09/04 04:42:02;;;;;;;2.60;2.50;;;24.30;40.20;;;;;;6205742;23;20482;-65
2022/09/04 04:45:48;;;;;;;3.23;3.03;;;24.30;40.20;;;;;;6190028;23;20421;-67
2022/09/04 04:47:33;;;;;;;3.23;3.03;;;24.30;40.30;;;;;;6174312;23;20421;-67
2022/09/04 04:50:06;;;;;;;3.20;3.00;;;24.30;40.30;;;;;;6188610;23;20484;-66
2022/09/04 04:52:44;;;;;;;2.70;2.60;;;24.30;40.20;;;;;;6205355;22;20875;-66
2022/09/04 04:55:20;;;;;;;2.80;2.60;;;24.30;40.20;;;;;;6183266;23;20416;-66
2022/09/04 04:58:07;;;;;;;2.90;2.80;;;24.30;40.20;;;;;;6177372;23;20428;-66
2022/09/04 05:01:10;;;;;;;2.70;2.60;;;24.30;40.20;;;;;;6205578;23;20480;-66
2022/09/04 05:03:47;;;;;;;3.03;2.93;;;24.30;40.20;;;;;;6179616;23;20404;-66
2022/09/04 05:06:23;;;;;;;3.43;3.23;;;24.30;40.20;;;;;;6170619;23;20416;-66
2022/09/04 05:09:24;;;;;;;2.83;2.73;;;24.30;40.20;;;;;;6170792;23;20751;-66
2022/09/04 05:11:57;;;;;;;3.27;3.07;;;24.30;40.20;;;;;;6162754;22;20432;-66
2022/09/04 05:14:36;;;;;;;3.50;3.30;;;24.30;40.20;;;;;;6173279;23;20422;-66
2022/09/04 05:17:07;;;;;;;2.83;2.63;;;24.30;40.20;;;;;;6173979;23;20457;-66
2022/09/04 05:19:57;;;;;;;2.87;2.67;;;24.30;40.20;;;;;;6203880;23;20874;-66
2022/09/04 05:22:37;;;;;;;3.00;2.90;;;24.30;40.10;;;;;;6172325;23;20892;-66
2022/09/04 05:25:31;;;;;;;3.00;2.90;;;24.40;40.20;;;;;;6172041;23;20885;-66
2022/09/04 05:28:25;;;;;;;2.80;2.60;;;24.40;40.20;;;;;;6195978;23;20807;-66
2022/09/04 05:31:02;;;;;;;2.70;2.60;;;24.40;40.20;;;;;;6197830;23;20442;-66
2022/09/04 05:34:05;;;;;;;2.60;2.50;;;24.40;40.20;;;;;;6204607;23;20470;-66
2022/09/04 05:36:45;;;;;;;3.30;3.20;;;24.40;40.20;;;;;;6176321;23;20956;-66
2022/09/04 05:39:17;;;;;;;2.80;2.60;;;24.40;40.20;;;;;;6175439;23;20409;-66
2022/09/04 05:42:08;;;;;;;2.90;2.80;;;24.40;40.20;;;;;;6170323;22;20498;-66
2022/09/04 05:44:46;;;;;;;2.80;2.70;;;24.40;40.20;;;;;;6173687;23;20401;-67
2022/09/04 05:47:40;;;;;;;2.60;2.50;;;24.40;40.20;;;;;;6179740;23;20414;-66
2022/09/04 05:50:06;;;;;;;2.60;2.40;;;24.40;40.20;;;;;;6205742;23;20486;-66
2022/09/04 05:53:05;;;;;;;2.63;2.53;;;24.40;40.20;;;;;;6199071;23;20883;-66
2022/09/04 05:55:52;;;;;;;2.90;2.80;;;24.40;40.20;;;;;;6190948;23;20833;-66
2022/09/04 05:58:50;;;;;;;2.80;2.60;;;24.40;40.20;;;;;;6180774;23;20412;-68
2022/09/04 06:01:34;;;;;;;3.00;2.90;;;24.40;40.20;;;;;;6169769;23;20444;-67
2022/09/04 06:04:19;;;;;;;2.70;2.60;;;24.40;40.20;;;;;;6172355;23;20907;-65
2022/09/04 06:07:03;;;;;;;2.60;2.50;;;24.40;40.20;;;;;;6166067;23;20447;-67
2022/09/04 06:10:06;;;;;;;2.50;2.40;;;24.40;40.20;;;;;;6204161;23;21118;-66
2022/09/04 06:12:59;;;;;;;2.67;2.57;;;24.40;40.20;;;;;;6192540;23;20502;-66
2022/09/04 06:15:31;;;;;;;3.10;2.90;;;24.40;40.20;;;;;;6202201;23;20513;-67
2022/09/04 06:18:05;;;;;;;2.83;2.73;;;24.40;40.20;;;;;;6203921;23;22898;-66
2022/09/04 06:20:53;;;;;;;2.43;2.33;;;24.40;40.20;;;;;;6201700;23;20867;-66
2022/09/04 06:23:43;;;;;;;2.90;2.70;;;24.40;40.20;;;;;;6172200;23;20420;-66
2022/09/04 06:26:33;;;;;;;2.83;2.73;;;24.40;40.20;;;;;;6173176;23;20888;-66
2022/09/04 06:29:23;;;;;;;2.30;2.20;;;24.40;40.20;;;;;;6172082;23;20405;-66
2022/09/04 06:32:09;;;;;;;2.37;2.27;;;24.40;40.20;;;;;;6187514;23;20419;-67
2022/09/04 06:34:52;;;;;;;2.90;2.70;;;24.40;40.20;;;;;;6187259;23;20423;-67
2022/09/04 06:37:44;;;;;;;2.77;2.67;;;24.40;40.30;;;;;;6197681;23;20460;-67
2022/09/04 06:40:28;;;;;;;2.53;2.43;;;24.40;40.30;;;;;;6170115;23;20425;-67
2022/09/04 06:43:30;;;;;;;2.70;2.60;;;24.40;40.20;;;;;;6159875;22;20755;-67
2022/09/04 06:46:17;;;;;;;2.47;2.37;;;24.40;40.20;;;;;;6196300;23;20501;-66
2022/09/04 06:48:56;;;;;;;2.70;2.60;;;24.40;40.30;;;;;;6191332;23;20894;-65
2022/09/04 06:51:51;;;;;;;2.80;2.63;;;24.40;40.30;;;;;;6198550;23;20467;-66
2022/09/04 06:54:54;;;;;;;2.93;2.83;;;24.40;40.30;;;;;;6166831;23;20419;-67
2022/09/04 06:57:34;;;;;;;2.60;2.50;;;24.40;40.30;;;;;;6169363;23;20531;-67
2022/09/04 07:00:09;;;;;;;2.20;2.10;;;24.40;40.30;;;;;;6174872;23;20488;-67
2022/09/04 07:02:37;;;;;;;2.50;2.40;;;24.40;40.30;;;;;;6203592;23;20414;-66
2022/09/04 07:05:15;;;;;;;2.10;2.00;;;24.40;40.30;;;;;;6205598;23;20908;-66
2022/09/04 07:08:13;;;;;;;2.73;2.63;;;24.40;40.30;;;;;;6199511;23;20415;-68
2022/09/04 07:10:44;;;;;;;2.77;2.57;;;24.40;40.30;;;;;;6196867;23;20511;-65
2022/09/04 07:13:35;;;;;;;2.73;2.63;;;24.40;40.30;;;;;;6173120;23;20417;-68
2022/09/04 07:16:20;;;;;;;2.30;2.20;;;24.40;40.30;;;;;;6102450;23;20481;-67
2022/09/04 07:18:55;;;;;;;2.40;2.30;;;24.40;40.30;;;;;;6197434;23;20418;-68
2022/09/04 07:21:59;;;;;;;2.57;2.47;;;24.40;40.30;;;;;;6165401;23;20411;-68
2022/09/04 07:24:48;;;;;;;3.10;2.67;;;24.50;40.40;;;;;;6187900;23;20416;-67
2022/09/04 07:27:30;;;;;;;3.33;3.03;;;24.50;40.40;;;;;;6189115;23;20407;-66
2022/09/04 07:30:08;;;;;;;2.90;2.70;;;24.50;40.50;;;;;;6176282;23;20412;-68
2022/09/04 07:32:53;;;;;;;3.83;2.43;;;24.50;40.50;;;;;;6205765;23;20878;-67
2022/09/04 07:35:55;;;;;;;3.13;2.50;;;24.50;40.50;;;;;;6195425;23;20769;-67
2022/09/04 07:38:27;;;;;;;2.73;2.53;;;24.50;40.50;;;;;;6201142;23;20438;-67
2022/09/04 07:41:15;;;;;;;2.70;2.50;;;24.50;40.50;;;;;;6200606;23;20416;-67
2022/09/04 07:44:02;;;;;;;2.87;2.67;;;24.50;40.50;;;;;;6195693;23;20411;-68
2022/09/04 07:47:13;;;;;;;2.37;2.20;;;24.50;40.60;;;;;;6151650;23;20471;-67
2022/09/04 07:50:02;;;;;;;2.73;2.53;;;24.50;40.50;;;;;;6071224;23;20415;-68
2022/09/04 07:52:51;;;;;;;3.10;2.90;;;24.50;40.50;;;;;;6192898;23;20477;-67
2022/09/04 07:55:34;;;;;;;2.37;2.27;;;24.50;40.50;;;;;;6170063;23;20907;-67
2022/09/04 07:58:19;;;;;;;2.47;2.37;;;24.50;40.60;;;;;;6195797;23;20441;-67
2022/09/04 08:00:55;;;;;;;2.57;2.47;;;24.50;40.50;;;;;;6199369;23;20792;-68
2022/09/04 08:03:58;;;;;;;2.70;2.50;;;24.50;40.60;;;;;;6175462;23;20416;-68
2022/09/04 08:06:49;;;;;;;2.37;2.17;;;24.50;40.50;;;;;;6165620;23;20418;-68
2022/09/04 08:09:35;;;;;;;2.70;2.50;;;24.50;40.50;;;;;;6194690;23;20924;-69
2022/09/04 08:12:17;;;;;;;4.80;2.60;;;24.50;40.50;;;;;;6143043;23;20430;-68
2022/09/04 08:14:52;;;;;;;2.60;2.50;;;24.50;40.60;;;;;;6197155;23;20419;-71
2022/09/04 08:18:03;;;;;;;2.47;2.30;;;24.50;40.50;;;;;;6168418;23;20448;-69
2022/09/04 08:20:41;;;;;;;2.43;2.33;;;24.50;40.50;;;;;;6200314;23;20439;-67
2022/09/04 08:23:10;;;;;;;2.80;2.63;;;24.50;40.50;;;;;;6165750;23;20423;-68
2022/09/04 08:25:58;;;;;;;2.30;2.20;;;24.50;40.50;;;;;;6207472;23;20742;-68
2022/09/04 08:29:04;;;;;;;3.57;2.63;;;24.50;40.50;;;;;;6217675;23;20372;-69
2022/09/04 08:31:42;;;;;;;3.57;2.33;;;24.50;40.50;;;;;;6207404;23;20526;-67
2022/09/04 08:34:26;;;;;;;2.60;2.50;;;24.50;40.40;;;;;;6215758;23;20519;-68
2022/09/04 08:37:21;;;;;;;2.83;2.40;;;24.50;40.40;;;;;;6216945;23;20469;-68
2022/09/04 08:40:10;;;;;;;2.53;2.10;;;24.50;40.40;;;;;;6149888;23;20483;-68
2022/09/04 08:43:09;;;;;;;3.17;2.70;;;24.50;40.50;;;;;;6153123;23;20559;-67
2022/09/04 08:45:54;;;;;;;2.47;2.37;;;24.50;40.50;;;;;;6201138;23;20419;-67
2022/09/04 08:48:34;;;;;;;3.73;2.70;;;24.50;40.60;;;;;;6197347;23;20450;-67
2022/09/04 08:51:38;;;;;;;2.73;2.63;;;24.50;40.60;;;;;;6184597;23;20430;-67
2022/09/04 08:54:32;;;;;;;2.70;2.50;;;24.50;40.60;;;;;;6172164;23;20749;-67
2022/09/04 08:57:31;;;;;;;2.40;2.30;;;24.50;40.60;;;;;;6192882;23;20869;-68
2022/09/04 09:00:33;;;;;;;2.83;2.67;;;24.50;40.60;;;;;;6180823;23;20499;-67
2022/09/04 09:03:24;;;;;;;2.80;2.70;;;24.50;40.70;;;;;;6163385;23;20416;-68
2022/09/04 09:06:16;;;;;;;3.00;2.80;;;24.50;40.80;;;;;;6099348;23;20462;-64
2022/09/04 09:09:00;;;;;;;2.20;2.10;;;24.50;40.80;;;;;;6113319;23;20434;-62
2022/09/04 09:11:52;;;;;;;2.57;2.33;;;24.50;40.80;;;;;;6113007;23;20430;-62
2022/09/04 09:14:42;;;;;;;2.77;2.57;;;24.60;40.90;;;;;;6129788;23;20430;-61
2022/09/04 09:17:12;;;;;;;2.93;2.60;;;24.50;40.80;;;;;;6105875;23;20430;-62
2022/09/04 09:20:05;;;;;;;3.17;2.60;;;24.50;40.80;;;;;;6147354;23;20435;-68
2022/09/04 09:22:48;;;;;;;2.50;2.40;;;24.50;40.80;;;;;;6150170;23;20911;-70
2022/09/04 09:25:14;;;;;;;2.00;1.90;;;24.60;40.70;;;;;;6156272;23;21350;-71
2022/09/04 09:27:59;;;;;;;1.90;1.80;;;24.50;40.60;;;;;;6174487;23;20454;-72
2022/09/04 09:30:28;;;;;;;5.20;2.60;;;24.60;40.60;;;;;;6176449;23;20401;-73
2022/09/04 09:33:02;;;;;;;4.33;2.13;;;24.60;40.50;;;;;;6179325;23;20430;-69
2022/09/04 09:36:03;;;;;;;2.40;2.20;;;24.60;40.30;;;;;;6182669;23;20411;-68
2022/09/04 09:38:48;;;;;;;1.93;1.83;;;24.60;40.30;;;;;;6196819;23;20494;-68
2022/09/04 09:41:31;;;;;;;2.90;2.70;;;24.60;40.20;;;;;;6199724;23;20570;-69
2022/09/04 09:44:38;;;;;;;3.20;3.00;;;24.60;40.10;;;;;;6179082;23;20413;-69
2022/09/04 09:47:07;;;;;;;4.80;4.40;;;24.60;40.10;;;;;;6198500;23;20522;-68
2022/09/04 09:50:03;;;;;;;3.73;3.53;;;24.60;40.20;;;;;;6204994;23;20419;-68
2022/09/04 09:52:47;;;;;;;4.73;4.20;;;24.60;40.20;;;;;;6179982;23;20903;-68
2022/09/04 09:55:39;;;;;;;7.00;4.53;;;24.60;40.30;;;;;;6174387;23;20405;-67
2022/09/04 09:58:25;;;;;;;39.17;10.20;;;24.60;40.50;;;;;;6186879;23;20895;-67
2022/09/04 10:01:10;;;;;;;75.57;18.27;;;24.70;40.80;;;;;;6181803;23;20419;-68
2022/09/04 10:03:58;;;;;;;166.90;32.97;;;24.70;41.20;;;;;;6200636;23;20485;-68
2022/09/04 10:06:43;;;;;;;212.13;39.63;;;24.70;41.20;;;;;;6189486;23;20419;-69
2022/09/04 10:09:53;;;;;;;254.27;43.83;;;24.80;41.30;;;;;;6201981;23;21042;-71
2022/09/04 10:12:36;;;;;;;257.20;45.13;;;24.80;41.40;;;;;;6193257;23;20483;-69
2022/09/04 10:15:21;;;;;;;244.60;48.57;;;24.80;41.50;;;;;;6202178;23;20407;-68
2022/09/04 10:17:58;;;;;;;379.17;70.73;;;24.90;41.80;;;;;;6180265;23;21208;-68
2022/09/04 10:20:30;;;;;;;272.03;52.37;;;24.90;45.50;;;;;;6188378;23;20416;-70
2022/09/04 10:23:24;;;;;;;173.87;36.13;;;25.00;43.70;;;;;;6185461;23;20916;-69
2022/09/04 10:26:00;;;;;;;87.30;26.47;;;25.00;42.00;;;;;;6203486;23;20405;-70
2022/09/04 10:29:09;;;;;;;86.33;25.30;;;25.00;42.10;;;;;;6190867;23;20469;-70
2022/09/04 10:32:01;;;;;;;67.40;20.90;;;25.00;42.10;;;;;;6190516;23;20411;-69
2022/09/04 10:34:46;;;;;;;127.67;29.63;;;25.00;42.20;;;;;;6185314;23;20430;-70
2022/09/04 10:37:26;;;;;;;72.30;19.60;;;25.00;42.30;;;;;;6180177;23;20873;-68
2022/09/04 10:43:10;;;;;;;42.47;16.50;;;25.00;42.40;;;;;;6189387;23;21023;-69
2022/09/04 10:46:00;;;;;;;89.13;23.37;;;25.10;42.50;;;;;;6194482;23;20474;-70
2022/09/04 10:49:01;;;;;;;53.73;15.97;;;25.10;42.50;;;;;;6178747;23;20404;-69
2022/09/04 10:51:48;;;;;;;82.60;21.47;;;25.10;42.40;;;;;;6184042;23;20434;-69
2022/09/04 10:54:24;;;;;;;45.43;15.93;;;25.10;42.40;;;;;;6175358;23;20411;-68
2022/09/04 10:57:20;;;;;;;38.83;13.50;;;25.10;42.50;;;;;;6187742;23;20809;-68
2022/09/04 11:00:00;;;;;;;35.17;14.00;;;25.10;42.50;;;;;;6155317;23;20427;-68
2022/09/04 11:02:31;;;;;;;27.67;10.60;;;25.10;42.50;;;;;;6180183;23;20890;-68
2022/09/04 11:05:36;;;;;;;23.30;10.43;;;25.10;42.50;;;;;;6204087;23;20426;-68
2022/09/04 11:08:35;;;;;;;18.03;9.07;;;25.20;42.60;;;;;;6193607;23;20407;-68
2022/09/04 11:11:08;;;;;;;21.60;8.90;;;25.20;42.50;;;;;;6198908;23;20412;-68
2022/09/04 11:13:59;;;;;;;8.17;6.20;;;25.20;42.60;;;;;;6178674;23;20440;-69
2022/09/04 11:16:44;;;;;;;18.93;7.50;;;25.20;42.30;;;;;;6142461;23;20456;-68
2022/09/04 11:19:46;;;;;;;12.73;6.20;;;25.20;42.30;;;;;;6174842;23;20460;-72
2022/09/04 11:22:13;;;;;;;6.83;6.13;;;25.20;42.30;;;;;;6194287;23;20423;-69
2022/09/04 11:25:03;;;;;;;9.83;6.60;;;25.20;42.20;;;;;;6174736;23;20749;-68
2022/09/04 11:27:47;;;;;;;13.27;7.70;;;25.20;42.10;;;;;;6174105;23;21216;-70
2022/09/04 11:30:22;;;;;;;8.10;6.13;;;25.20;42.20;;;;;;6182809;23;20424;-69
2022/09/04 11:33:21;;;;;;;18.30;6.80;;;25.30;42.20;;;;;;6198572;23;20411;-70
2022/09/04 11:36:23;;;;;;;12.00;5.80;;;25.30;42.20;;;;;;6189226;23;20427;-69
2022/09/04 11:39:16;;;;;;;13.40;5.73;;;25.30;42.00;;;;;;6175556;23;20474;-69
2022/09/04 11:42:08;;;;;;;10.07;6.17;;;25.30;42.00;;;;;;6175633;23;20419;-69
2022/09/04 11:44:52;;;;;;;12.80;5.53;;;25.30;41.90;;;;;;6173933;23;20412;-71
2022/09/04 11:47:55;;;;;;;8.60;4.83;;;25.30;41.90;;;;;;6179577;23;20786;-70
2022/09/04 11:50:49;;;;;;;9.07;4.90;;;25.30;41.80;;;;;;6203831;23;20782;-69
2022/09/04 11:53:23;;;;;;;8.03;5.10;;;25.40;41.70;;;;;;6191882;23;20737;-69
2022/09/04 11:56:14;;;;;;;8.67;5.43;;;25.40;41.80;;;;;;6174951;23;20424;-70
2022/09/04 11:59:13;;;;;;;10.50;5.70;;;25.40;41.70;;;;;;6191584;23;20419;-70
2022/09/04 12:02:14;;;;;;;8.63;4.23;;;25.40;41.70;;;;;;6173901;23;20416;-74
2022/09/04 12:04:55;;;;;;;7.13;4.90;;;25.40;41.70;;;;;;6159326;23;20473;-70
2022/09/04 12:07:42;;;;;;;10.20;5.40;;;25.50;41.70;;;;;;6179530;23;20416;-71
2022/09/04 12:10:16;;;;;;;5.67;4.83;;;25.50;41.70;;;;;;6171097;23;20420;-71
2022/09/04 12:13:03;;;;;;;12.03;4.30;;;25.50;41.80;;;;;;6172760;23;20420;-72
2022/09/04 12:16:05;;;;;;;6.13;3.77;;;25.50;41.70;;;;;;6149152;23;20431;-72
2022/09/04 12:18:53;;;;;;;4.33;3.93;;;25.50;41.70;;;;;;6191203;23;20435;-72
2022/09/04 12:21:50;;;;;;;4.13;3.80;;;25.50;41.70;;;;;;6165819;23;20439;-70
2022/09/04 12:25:03;;;;;;;6.80;4.57;;;25.50;41.70;;;;;;6187658;23;20717;-70
2022/09/04 12:27:41;;;;;;;4.17;3.87;;;25.50;41.70;;;;;;6173549;23;20435;-70
2022/09/04 12:30:47;;;;;;;4.60;4.30;;;25.50;42.50;;;;;;6206296;23;20415;-69
2022/09/04 12:33:34;;;;;;;4.23;3.90;;;25.50;41.70;;;;;;6167410;23;20400;-71
2022/09/04 12:36:25;;;;;;;3.90;3.50;;;25.50;41.70;;;;;;6191601;23;20795;-70
2022/09/04 12:39:09;;;;;;;8.23;3.73;;;25.50;41.60;;;;;;6178867;23;20416;-71
2022/09/04 12:41:55;;;;;;;4.70;3.70;;;25.50;41.60;;;;;;6191705;23;20430;-70
2022/09/04 12:44:44;;;;;;;4.70;3.90;;;25.50;41.60;;;;;;6206581;23;20419;-70
2022/09/04 12:47:29;;;;;;;8.43;3.70;;;25.50;41.60;;;;;;6173262;23;20447;-71
2022/09/04 12:50:03;;;;;;;3.10;2.90;;;25.50;41.60;;;;;;6204605;23;20471;-70
2022/09/04 12:53:24;;;;;;;3.70;3.40;;;25.50;41.50;;;;;;6165950;23;20486;-70
2022/09/04 12:56:14;;;;;;;3.23;3.03;;;25.50;41.40;;;;;;6084316;23;20435;-70
2022/09/04 12:58:49;;;;;;;3.20;3.00;;;25.50;41.30;;;;;;6182912;23;20413;-70
2022/09/04 13:01:44;;;;;;;6.73;3.47;;;25.50;41.30;;;;;;6176988;23;20418;-71
2022/09/04 13:04:15;;;;;;;2.80;2.60;;;25.50;41.30;;;;;;6197042;23;20434;-71
2022/09/04 13:07:17;;;;;;;99.70;17.10;;;25.50;41.30;;;;;;6175980;23;20421;-70
2022/09/04 13:10:20;;;;;;;133.37;25.67;;;25.50;41.40;;;;;;6177035;23;20419;-71
2022/09/04 13:12:48;;;;;;;141.97;30.73;;;25.50;41.40;;;;;;6180310;23;20415;-70
2022/09/04 13:15:28;;;;;;;219.07;35.87;;;25.50;41.40;;;;;;6187078;23;20411;-71
2022/09/04 13:18:14;;;;;;;198.63;40.27;;;25.50;41.50;;;;;;6204452;23;20425;-70
2022/09/04 13:20:59;;;;;;;152.20;33.03;;;25.50;41.50;;;;;;6189041;23;20494;-71
2022/09/04 13:23:57;;;;;;;130.07;28.00;;;25.50;41.50;;;;;;6172695;23;20836;-70
2022/09/04 13:26:34;;;;;;;145.53;30.00;;;25.50;41.50;;;;;;6178484;23;20404;-70
2022/09/04 13:29:15;;;;;;;221.17;35.23;;;25.60;41.60;;;;;;6183821;23;20412;-70
2022/09/04 13:31:59;;;;;;;221.57;40.90;;;25.60;41.70;;;;;;6180560;23;20396;-69
2022/09/04 13:34:36;;;;;;;122.27;29.10;;;25.60;41.50;;;;;;6181665;23;20404;-69
2022/09/04 13:37:10;;;;;;;102.00;23.57;;;25.70;41.70;;;;;;6191296;23;20479;-68
2022/09/04 13:40:27;;;;;;;140.50;32.00;;;25.70;41.70;;;;;;6184055;23;20799;-69
2022/09/04 13:43:14;;;;;;;107.67;29.40;;;25.70;41.80;;;;;;6058419;23;20520;-69
2022/09/04 13:45:45;;;;;;;58.90;19.17;;;25.70;41.90;;;;;;6167598;23;20419;-69
2022/09/04 13:48:31;;;;;;;51.17;15.23;;;25.70;41.90;;;;;;6174256;23;20427;-69
2022/09/04 13:51:00;;;;;;;42.40;14.37;;;25.60;41.80;;;;;;6203720;23;20443;-69
2022/09/04 13:53:47;;;;;;;41.27;12.60;;;25.60;41.80;;;;;;6178122;23;20474;-69
2022/09/04 13:56:21;;;;;;;23.33;9.60;;;25.60;41.80;;;;;;6182537;23;20408;-69
2022/09/04 13:58:50;;;;;;;26.60;11.57;;;25.60;41.80;;;;;;6178559;23;20434;-69
2022/09/04 14:01:26;;;;;;;22.80;11.00;;;25.60;41.80;;;;;;6172346;23;20784;-69
2022/09/04 14:03:54;;;;;;;25.13;9.30;;;25.60;41.80;;;;;;6177664;23;20918;-69
2022/09/04 14:06:22;;;;;;;13.60;7.93;;;25.60;41.80;;;;;;6175139;23;20738;-69
2022/09/04 14:08:52;;;;;;;13.67;7.87;;;25.60;41.80;;;;;;6187484;23;20412;-70
2022/09/04 14:11:49;;;;;;;13.87;7.40;;;25.60;41.80;;;;;;6181803;23;20799;-70
2022/09/04 14:14:54;;;;;;;17.10;7.20;;;25.60;41.80;;;;;;6194435;23;20404;-69
2022/09/04 14:17:25;;;;;;;12.27;6.40;;;25.50;41.70;;;;;;6177958;23;20447;-69
2022/09/04 14:20:09;;;;;;;10.37;4.77;;;25.50;41.60;;;;;;6198320;23;20434;-69
2022/09/04 14:23:14;;;;;;;7.10;4.77;;;25.50;41.30;;;;;;6204279;23;20479;-69